sensor_id;sensor_type;location;lat;lon;timestamp;temperature;humidity
27276;DHT22;14772;47.398;8.080;2022-11-11T00:01:21;8.80;99.90
27276;DHT22;14772;47.398;8.080;2022-11-11T00:06:18;8.80;99.90
27276;DHT22;14772;47.398;8.080;2022-11-11T00:11:16;8.80;99.90
27276;DHT22;14772;47.398;8.080;2022-11-11T00:16:15;8.80;99.90
27276;DHT22;14772;47.398;8.080;2022-11-11T00:21:14;8.90;99.90
27276;DHT22;14772;47.398;8.080;2022-11-11T00:26:17;9.00;99.90
27276;DHT22;14772;47.398;8.080;2022-11-11T00:31:15;8.70;99.90
27276;DHT22;14772;47.398;8.080;2022-11-11T00:36:12;8.80;99.90
27276;DHT22;14772;47.398;8.080;2022-11-11T00:41:10;8.90;99.90
27276;DHT22;14772;47.398;8.080;2022-11-11T00:46:08;8.90;99.90
27276;DHT22;14772;47.398;8.080;2022-11-11T00:51:06;9.00;99.90
27276;DHT22;14772;47.398;8.080;2022-11-11T00:56:04;9.00;99.90
27276;DHT22;14772;47.398;8.080;2022-11-11T01:01:01;9.00;99.90
27276;DHT22;14772;47.398;8.080;2022-11-11T01:06:00;9.00;99.90
27276;DHT22;14772;47.398;8.080;2022-11-11T01:10:58;9.00;99.90
27276;DHT22;14772;47.398;8.080;2022-11-11T01:15:59;9.10;99.90
27276;DHT22;14772;47.398;8.080;2022-11-11T01:21:01;9.10;99.90
27276;DHT22;14772;47.398;8.080;2022-11-11T01:26:02;9.20;99.90
27276;DHT22;14772;47.398;8.080;2022-11-11T01:31:04;9.10;99.90
27276;DHT22;14772;47.398;8.080;2022-11-11T01:36:04;9.10;99.90
27276;DHT22;14772;47.398;8.080;2022-11-11T01:41:03;9.10;99.90
27276;DHT22;14772;47.398;8.080;2022-11-11T01:46:01;9.20;99.90
27276;DHT22;14772;47.398;8.080;2022-11-11T01:50:59;9.10;99.90
27276;DHT22;14772;47.398;8.080;2022-11-11T01:55:57;9.10;99.90
27276;DHT22;14772;47.398;8.080;2022-11-11T02:06:05;9.00;99.90
27276;DHT22;14772;47.398;8.080;2022-11-11T02:11:06;9.20;99.90
27276;DHT22;14772;47.398;8.080;2022-11-11T02:16:05;9.20;99.90
27276;DHT22;14772;47.398;8.080;2022-11-11T02:21:03;9.20;99.90
27276;DHT22;14772;47.398;8.080;2022-11-11T02:26:19;9.10;99.90
27276;DHT22;14772;47.398;8.080;2022-11-11T02:31:18;9.30;99.90
27276;DHT22;14772;47.398;8.080;2022-11-11T02:36:15;9.30;99.90
27276;DHT22;14772;47.398;8.080;2022-11-11T02:41:12;9.40;99.90
27276;DHT22;14772;47.398;8.080;2022-11-11T02:46:09;9.40;99.90
27276;DHT22;14772;47.398;8.080;2022-11-11T02:51:07;9.30;99.90
27276;DHT22;14772;47.398;8.080;2022-11-11T02:56:05;9.20;99.90
27276;DHT22;14772;47.398;8.080;2022-11-11T03:01:02;9.40;99.90
27276;DHT22;14772;47.398;8.080;2022-11-11T03:06:00;9.40;99.90
27276;DHT22;14772;47.398;8.080;2022-11-11T03:16:06;9.40;99.90
27276;DHT22;14772;47.398;8.080;2022-11-11T03:21:04;9.30;99.90
27276;DHT22;14772;47.398;8.080;2022-11-11T03:26:01;9.50;99.90
27276;DHT22;14772;47.398;8.080;2022-11-11T03:30:58;9.30;99.90
27276;DHT22;14772;47.398;8.080;2022-11-11T03:35:56;9.50;99.90
27276;DHT22;14772;47.398;8.080;2022-11-11T03:40:54;9.50;99.90
27276;DHT22;14772;47.398;8.080;2022-11-11T03:45:53;9.50;99.90
27276;DHT22;14772;47.398;8.080;2022-11-11T03:50:50;9.50;99.90
27276;DHT22;14772;47.398;8.080;2022-11-11T03:55:48;9.50;99.90
27276;DHT22;14772;47.398;8.080;2022-11-11T04:00:46;9.50;99.90
27276;DHT22;14772;47.398;8.080;2022-11-11T04:05:44;9.50;99.90
27276;DHT22;14772;47.398;8.080;2022-11-11T04:10:41;9.60;99.90
27276;DHT22;14772;47.398;8.080;2022-11-11T04:15:38;9.50;99.90
27276;DHT22;14772;47.398;8.080;2022-11-11T04:20:36;9.60;99.90
27276;DHT22;14772;47.398;8.080;2022-11-11T04:25:33;9.70;99.90
27276;DHT22;14772;47.398;8.080;2022-11-11T04:30:30;9.60;99.90
27276;DHT22;14772;47.398;8.080;2022-11-11T04:35:27;9.70;99.90
27276;DHT22;14772;47.398;8.080;2022-11-11T04:40:25;9.70;99.90
27276;DHT22;14772;47.398;8.080;2022-11-11T04:45:22;9.80;99.90
27276;DHT22;14772;47.398;8.080;2022-11-11T04:50:19;9.80;99.90
27276;DHT22;14772;47.398;8.080;2022-11-11T04:55:17;9.70;99.90
27276;DHT22;14772;47.398;8.080;2022-11-11T05:00:16;9.80;99.90
27276;DHT22;14772;47.398;8.080;2022-11-11T05:05:14;9.80;99.90
27276;DHT22;14772;47.398;8.080;2022-11-11T05:10:11;9.90;99.90
27276;DHT22;14772;47.398;8.080;2022-11-11T05:15:09;9.80;99.90
27276;DHT22;14772;47.398;8.080;2022-11-11T05:20:08;9.80;99.90
27276;DHT22;14772;47.398;8.080;2022-11-11T05:25:07;9.80;99.90
27276;DHT22;14772;47.398;8.080;2022-11-11T05:30:07;9.90;99.90
27276;DHT22;14772;47.398;8.080;2022-11-11T05:35:07;9.90;99.90
27276;DHT22;14772;47.398;8.080;2022-11-11T05:40:09;9.90;99.90
27276;DHT22;14772;47.398;8.080;2022-11-11T05:45:09;9.90;99.90
27276;DHT22;14772;47.398;8.080;2022-11-11T05:50:07;9.90;99.90
27276;DHT22;14772;47.398;8.080;2022-11-11T05:55:07;10.00;99.90
27276;DHT22;14772;47.398;8.080;2022-11-11T06:00:06;9.80;99.90
27276;DHT22;14772;47.398;8.080;2022-11-11T06:05:05;9.80;99.90
27276;DHT22;14772;47.398;8.080;2022-11-11T06:10:02;9.80;99.90
27276;DHT22;14772;47.398;8.080;2022-11-11T06:14:59;9.80;99.90
27276;DHT22;14772;47.398;8.080;2022-11-11T06:19:56;9.80;99.90
27276;DHT22;14772;47.398;8.080;2022-11-11T06:24:53;9.80;99.90
27276;DHT22;14772;47.398;8.080;2022-11-11T06:29:51;9.90;99.90
27276;DHT22;14772;47.398;8.080;2022-11-11T06:34:48;9.80;99.90
27276;DHT22;14772;47.398;8.080;2022-11-11T06:39:46;9.80;99.90
27276;DHT22;14772;47.398;8.080;2022-11-11T06:44:44;9.80;99.90
27276;DHT22;14772;47.398;8.080;2022-11-11T06:49:41;9.80;99.90
27276;DHT22;14772;47.398;8.080;2022-11-11T06:54:38;9.90;99.90
27276;DHT22;14772;47.398;8.080;2022-11-11T06:59:35;10.00;99.90
27276;DHT22;14772;47.398;8.080;2022-11-11T07:04:32;10.10;99.90
27276;DHT22;14772;47.398;8.080;2022-11-11T07:09:30;10.10;99.90
27276;DHT22;14772;47.398;8.080;2022-11-11T07:14:27;10.00;99.90
27276;DHT22;14772;47.398;8.080;2022-11-11T07:19:24;10.00;99.90
27276;DHT22;14772;47.398;8.080;2022-11-11T07:24:21;10.00;99.90
27276;DHT22;14772;47.398;8.080;2022-11-11T07:29:19;10.00;99.90
27276;DHT22;14772;47.398;8.080;2022-11-11T07:34:16;9.90;99.90
27276;DHT22;14772;47.398;8.080;2022-11-11T07:39:13;10.10;99.90
27276;DHT22;14772;47.398;8.080;2022-11-11T07:44:10;10.20;99.90
27276;DHT22;14772;47.398;8.080;2022-11-11T07:49:07;10.20;99.90
27276;DHT22;14772;47.398;8.080;2022-11-11T07:54:05;10.10;99.90
27276;DHT22;14772;47.398;8.080;2022-11-11T07:59:02;10.10;99.90
27276;DHT22;14772;47.398;8.080;2022-11-11T08:03:59;10.10;99.90
27276;DHT22;14772;47.398;8.080;2022-11-11T08:08:57;10.30;99.90
27276;DHT22;14772;47.398;8.080;2022-11-11T08:13:54;10.40;99.90
27276;DHT22;14772;47.398;8.080;2022-11-11T08:18:52;10.40;99.90
27276;DHT22;14772;47.398;8.080;2022-11-11T08:23:49;10.50;99.90
27276;DHT22;14772;47.398;8.080;2022-11-11T08:28:46;10.50;99.90
27276;DHT22;14772;47.398;8.080;2022-11-11T08:33:43;10.50;99.90
27276;DHT22;14772;47.398;8.080;2022-11-11T08:38:41;10.30;99.90
27276;DHT22;14772;47.398;8.080;2022-11-11T08:48:51;10.50;99.90
27276;DHT22;14772;47.398;8.080;2022-11-11T08:53:50;10.60;99.90
27276;DHT22;14772;47.398;8.080;2022-11-11T08:58:55;10.60;99.90
27276;DHT22;14772;47.398;8.080;2022-11-11T09:09:11;10.60;99.90
27276;DHT22;14772;47.398;8.080;2022-11-11T09:14:24;10.80;99.90
27276;DHT22;14772;47.398;8.080;2022-11-11T09:24:59;11.10;99.90
27276;DHT22;14772;47.398;8.080;2022-11-11T09:30:03;11.10;99.90
27276;DHT22;14772;47.398;8.080;2022-11-11T09:35:04;11.10;99.90
27276;DHT22;14772;47.398;8.080;2022-11-11T09:40:08;11.10;99.90
27276;DHT22;14772;47.398;8.080;2022-11-11T09:50:41;11.30;99.90
27276;DHT22;14772;47.398;8.080;2022-11-11T10:00:54;11.40;99.90
27276;DHT22;14772;47.398;8.080;2022-11-11T10:11:26;11.60;99.90
27276;DHT22;14772;47.398;8.080;2022-11-11T10:16:18;11.70;99.90
27276;DHT22;14772;47.398;8.080;2022-11-11T10:21:19;11.70;99.90
27276;DHT22;14772;47.398;8.080;2022-11-11T10:26:19;11.80;99.90
27276;DHT22;14772;47.398;8.080;2022-11-11T10:31:18;11.80;99.90
27276;DHT22;14772;47.398;8.080;2022-11-11T10:36:19;11.80;99.90
27276;DHT22;14772;47.398;8.080;2022-11-11T10:41:20;11.90;99.90
27276;DHT22;14772;47.398;8.080;2022-11-11T10:46:21;11.90;99.90
27276;DHT22;14772;47.398;8.080;2022-11-11T10:51:19;12.00;99.90
27276;DHT22;14772;47.398;8.080;2022-11-11T10:56:20;12.00;99.90
27276;DHT22;14772;47.398;8.080;2022-11-11T11:01:24;11.90;99.90
27276;DHT22;14772;47.398;8.080;2022-11-11T11:06:24;12.00;99.90
27276;DHT22;14772;47.398;8.080;2022-11-11T11:11:25;12.10;99.90
27276;DHT22;14772;47.398;8.080;2022-11-11T11:16:26;12.10;99.90
27276;DHT22;14772;47.398;8.080;2022-11-11T11:21:24;12.10;99.90
27276;DHT22;14772;47.398;8.080;2022-11-11T11:26:21;12.20;99.90
27276;DHT22;14772;47.398;8.080;2022-11-11T11:31:23;12.20;99.90
27276;DHT22;14772;47.398;8.080;2022-11-11T11:36:23;12.30;99.90
27276;DHT22;14772;47.398;8.080;2022-11-11T11:41:35;12.30;99.90
27276;DHT22;14772;47.398;8.080;2022-11-11T11:46:36;12.20;99.90
27276;DHT22;14772;47.398;8.080;2022-11-11T11:51:36;12.20;99.90
27276;DHT22;14772;47.398;8.080;2022-11-11T11:56:37;12.50;99.90
27276;DHT22;14772;47.398;8.080;2022-11-11T12:01:40;12.60;99.90
27276;DHT22;14772;47.398;8.080;2022-11-11T12:06:44;12.60;99.90
27276;DHT22;14772;47.398;8.080;2022-11-11T12:11:45;12.70;99.90
27276;DHT22;14772;47.398;8.080;2022-11-11T12:16:46;12.80;99.90
27276;DHT22;14772;47.398;8.080;2022-11-11T12:21:52;12.90;99.90
27276;DHT22;14772;47.398;8.080;2022-11-11T12:26:52;13.00;99.90
27276;DHT22;14772;47.398;8.080;2022-11-11T12:37:20;13.00;99.90
27276;DHT22;14772;47.398;8.080;2022-11-11T12:42:19;13.00;99.90
27276;DHT22;14772;47.398;8.080;2022-11-11T12:47:26;13.20;99.90
27276;DHT22;14772;47.398;8.080;2022-11-11T12:52:33;13.20;99.90
27276;DHT22;14772;47.398;8.080;2022-11-11T12:57:34;12.90;99.90
27276;DHT22;14772;47.398;8.080;2022-11-11T13:02:46;13.20;99.90
27276;DHT22;14772;47.398;8.080;2022-11-11T13:13:31;13.30;99.90
27276;DHT22;14772;47.398;8.080;2022-11-11T13:18:35;13.40;99.90
27276;DHT22;14772;47.398;8.080;2022-11-11T13:23:32;13.50;99.90
27276;DHT22;14772;47.398;8.080;2022-11-11T13:28:32;13.60;99.90
27276;DHT22;14772;47.398;8.080;2022-11-11T13:33:37;13.40;99.90
27276;DHT22;14772;47.398;8.080;2022-11-11T13:38:38;13.50;99.90
27276;DHT22;14772;47.398;8.080;2022-11-11T13:43:39;13.40;99.90
27276;DHT22;14772;47.398;8.080;2022-11-11T13:48:43;13.60;99.90
27276;DHT22;14772;47.398;8.080;2022-11-11T13:53:39;13.60;99.90
27276;DHT22;14772;47.398;8.080;2022-11-11T13:58:39;13.70;99.90
27276;DHT22;14772;47.398;8.080;2022-11-11T14:03:58;13.70;99.90
27276;DHT22;14772;47.398;8.080;2022-11-11T14:08:55;13.60;99.90
27276;DHT22;14772;47.398;8.080;2022-11-11T14:13:53;13.70;99.90
27276;DHT22;14772;47.398;8.080;2022-11-11T14:18:51;13.60;99.90
27276;DHT22;14772;47.398;8.080;2022-11-11T14:23:52;13.60;99.90
27276;DHT22;14772;47.398;8.080;2022-11-11T14:28:53;13.60;99.90
27276;DHT22;14772;47.398;8.080;2022-11-11T14:33:53;13.60;99.90
27276;DHT22;14772;47.398;8.080;2022-11-11T14:38:54;13.60;99.90
27276;DHT22;14772;47.398;8.080;2022-11-11T14:43:52;13.50;99.90
27276;DHT22;14772;47.398;8.080;2022-11-11T14:49:30;13.50;99.90
27276;DHT22;14772;47.398;8.080;2022-11-11T14:54:35;13.50;99.90
27276;DHT22;14772;47.398;8.080;2022-11-11T14:59:34;13.40;99.90
27276;DHT22;14772;47.398;8.080;2022-11-11T15:04:39;13.40;99.90
27276;DHT22;14772;47.398;8.080;2022-11-11T15:15:04;13.30;99.90
27276;DHT22;14772;47.398;8.080;2022-11-11T15:20:11;13.10;99.90
27276;DHT22;14772;47.398;8.080;2022-11-11T15:25:16;13.10;99.90
27276;DHT22;14772;47.398;8.080;2022-11-11T15:30:15;13.10;99.90
27276;DHT22;14772;47.398;8.080;2022-11-11T15:40:42;13.00;99.90
27276;DHT22;14772;47.398;8.080;2022-11-11T15:45:34;12.70;99.90
27276;DHT22;14772;47.398;8.080;2022-11-11T15:50:34;12.50;99.90
27276;DHT22;14772;47.398;8.080;2022-11-11T15:55:33;12.50;99.90
27276;DHT22;14772;47.398;8.080;2022-11-11T16:00:32;12.50;99.90
27276;DHT22;14772;47.398;8.080;2022-11-11T16:05:30;12.50;99.90
27276;DHT22;14772;47.398;8.080;2022-11-11T16:10:29;12.30;99.90
27276;DHT22;14772;47.398;8.080;2022-11-11T16:15:51;12.10;99.90
27276;DHT22;14772;47.398;8.080;2022-11-11T16:26:18;11.70;99.90
27276;DHT22;14772;47.398;8.080;2022-11-11T16:31:36;11.70;99.90
27276;DHT22;14772;47.398;8.080;2022-11-11T16:36:33;11.70;99.90
27276;DHT22;14772;47.398;8.080;2022-11-11T16:41:31;11.30;99.90
27276;DHT22;14772;47.398;8.080;2022-11-11T16:46:48;11.30;99.90
27276;DHT22;14772;47.398;8.080;2022-11-11T16:51:46;11.30;99.90
27276;DHT22;14772;47.398;8.080;2022-11-11T16:56:47;11.40;99.90
27276;DHT22;14772;47.398;8.080;2022-11-11T17:01:45;11.40;99.90
27276;DHT22;14772;47.398;8.080;2022-11-11T17:06:48;11.30;99.90
27276;DHT22;14772;47.398;8.080;2022-11-11T17:11:46;11.30;99.90
27276;DHT22;14772;47.398;8.080;2022-11-11T17:16:43;11.20;99.90
27276;DHT22;14772;47.398;8.080;2022-11-11T17:21:40;11.10;99.90
27276;DHT22;14772;47.398;8.080;2022-11-11T17:26:38;11.10;99.90
27276;DHT22;14772;47.398;8.080;2022-11-11T17:31:35;11.00;99.90
27276;DHT22;14772;47.398;8.080;2022-11-11T17:36:32;11.00;99.90
27276;DHT22;14772;47.398;8.080;2022-11-11T17:41:29;11.00;99.90
27276;DHT22;14772;47.398;8.080;2022-11-11T17:46:27;10.90;99.90
27276;DHT22;14772;47.398;8.080;2022-11-11T17:51:24;10.90;99.90
27276;DHT22;14772;47.398;8.080;2022-11-11T17:56:21;10.80;99.90
27276;DHT22;14772;47.398;8.080;2022-11-11T18:01:19;10.80;99.90
27276;DHT22;14772;47.398;8.080;2022-11-11T18:06:17;10.80;99.90
27276;DHT22;14772;47.398;8.080;2022-11-11T18:11:14;10.50;99.90
27276;DHT22;14772;47.398;8.080;2022-11-11T18:16:14;10.40;99.90
27276;DHT22;14772;47.398;8.080;2022-11-11T18:21:12;10.30;99.90
27276;DHT22;14772;47.398;8.080;2022-11-11T18:26:09;10.20;99.90
27276;DHT22;14772;47.398;8.080;2022-11-11T18:31:09;10.20;99.90
27276;DHT22;14772;47.398;8.080;2022-11-11T18:36:09;10.10;99.90
27276;DHT22;14772;47.398;8.080;2022-11-11T18:41:08;10.00;99.90
27276;DHT22;14772;47.398;8.080;2022-11-11T18:46:10;9.90;99.90
27276;DHT22;14772;47.398;8.080;2022-11-11T18:51:09;9.90;99.90
27276;DHT22;14772;47.398;8.080;2022-11-11T18:56:09;9.90;99.90
27276;DHT22;14772;47.398;8.080;2022-11-11T19:01:09;9.80;99.90
27276;DHT22;14772;47.398;8.080;2022-11-11T19:06:08;9.60;99.90
27276;DHT22;14772;47.398;8.080;2022-11-11T19:11:07;9.60;99.90
27276;DHT22;14772;47.398;8.080;2022-11-11T19:16:06;9.70;99.90
27276;DHT22;14772;47.398;8.080;2022-11-11T19:21:09;9.70;99.90
27276;DHT22;14772;47.398;8.080;2022-11-11T19:26:07;9.60;99.90
27276;DHT22;14772;47.398;8.080;2022-11-11T19:31:06;9.40;99.90
27276;DHT22;14772;47.398;8.080;2022-11-11T19:41:23;9.50;99.90
27276;DHT22;14772;47.398;8.080;2022-11-11T19:46:52;9.40;99.90
27276;DHT22;14772;47.398;8.080;2022-11-11T19:51:50;9.30;99.90
27276;DHT22;14772;47.398;8.080;2022-11-11T19:56:47;9.30;99.90
27276;DHT22;14772;47.398;8.080;2022-11-11T20:01:45;9.40;99.90
27276;DHT22;14772;47.398;8.080;2022-11-11T20:06:42;9.60;99.90
27276;DHT22;14772;47.398;8.080;2022-11-11T20:11:41;9.60;99.90
27276;DHT22;14772;47.398;8.080;2022-11-11T20:16:39;9.70;99.90
27276;DHT22;14772;47.398;8.080;2022-11-11T20:21:36;9.70;99.90
27276;DHT22;14772;47.398;8.080;2022-11-11T20:26:33;9.70;99.90
27276;DHT22;14772;47.398;8.080;2022-11-11T20:31:31;9.80;99.90
27276;DHT22;14772;47.398;8.080;2022-11-11T20:36:30;9.90;99.90
27276;DHT22;14772;47.398;8.080;2022-11-11T20:41:27;9.90;99.90
27276;DHT22;14772;47.398;8.080;2022-11-11T20:46:24;10.00;99.90
27276;DHT22;14772;47.398;8.080;2022-11-11T20:51:22;10.00;99.90
27276;DHT22;14772;47.398;8.080;2022-11-11T20:56:20;10.10;99.90
27276;DHT22;14772;47.398;8.080;2022-11-11T21:01:23;10.20;99.90
27276;DHT22;14772;47.398;8.080;2022-11-11T21:06:32;10.30;99.90
27276;DHT22;14772;47.398;8.080;2022-11-11T21:11:46;10.10;99.90
27276;DHT22;14772;47.398;8.080;2022-11-11T21:16:46;9.90;99.90
27276;DHT22;14772;47.398;8.080;2022-11-11T21:21:44;10.10;99.90
27276;DHT22;14772;47.398;8.080;2022-11-11T21:26:42;10.20;99.90
27276;DHT22;14772;47.398;8.080;2022-11-11T21:31:40;10.30;99.90
27276;DHT22;14772;47.398;8.080;2022-11-11T21:36:40;10.20;99.90
27276;DHT22;14772;47.398;8.080;2022-11-11T21:41:39;10.10;99.90
27276;DHT22;14772;47.398;8.080;2022-11-11T21:46:39;10.10;99.90
27276;DHT22;14772;47.398;8.080;2022-11-11T21:51:37;10.30;99.90
27276;DHT22;14772;47.398;8.080;2022-11-11T21:56:37;10.30;99.90
27276;DHT22;14772;47.398;8.080;2022-11-11T22:01:36;10.40;99.90
27276;DHT22;14772;47.398;8.080;2022-11-11T22:06:34;10.50;99.90
27276;DHT22;14772;47.398;8.080;2022-11-11T22:11:33;10.40;99.90
27276;DHT22;14772;47.398;8.080;2022-11-11T22:16:32;10.50;99.90
27276;DHT22;14772;47.398;8.080;2022-11-11T22:21:31;10.60;99.90
27276;DHT22;14772;47.398;8.080;2022-11-11T22:26:31;10.60;99.90
27276;DHT22;14772;47.398;8.080;2022-11-11T22:31:30;10.70;99.90
27276;DHT22;14772;47.398;8.080;2022-11-11T22:36:29;10.70;99.90
27276;DHT22;14772;47.398;8.080;2022-11-11T22:41:29;10.70;99.90
27276;DHT22;14772;47.398;8.080;2022-11-11T22:46:28;10.70;99.90
27276;DHT22;14772;47.398;8.080;2022-11-11T22:51:27;10.70;99.90
27276;DHT22;14772;47.398;8.080;2022-11-11T22:56:25;10.80;99.90
27276;DHT22;14772;47.398;8.080;2022-11-11T23:01:24;10.80;99.90
27276;DHT22;14772;47.398;8.080;2022-11-11T23:06:23;10.80;99.90
27276;DHT22;14772;47.398;8.080;2022-11-11T23:11:22;10.80;99.90
27276;DHT22;14772;47.398;8.080;2022-11-11T23:16:20;10.90;99.90
27276;DHT22;14772;47.398;8.080;2022-11-11T23:21:20;10.80;99.90
27276;DHT22;14772;47.398;8.080;2022-11-11T23:26:20;10.80;99.90
27276;DHT22;14772;47.398;8.080;2022-11-11T23:31:23;10.90;99.90
27276;DHT22;14772;47.398;8.080;2022-11-11T23:36:24;10.80;99.90
27276;DHT22;14772;47.398;8.080;2022-11-11T23:41:22;10.80;99.90
27276;DHT22;14772;47.398;8.080;2022-11-11T23:46:20;10.90;99.90
27276;DHT22;14772;47.398;8.080;2022-11-11T23:51:17;10.90;99.90
27276;DHT22;14772;47.398;8.080;2022-11-11T23:56:15;10.90;99.90
